Time;durP1;ratioP1;P1;durP2;ratioP2;P2;SDS_P1;SDS_P2;PMS_P1;PMS_P2;Temp;Humidity;BMP_temperature;BMP_pressure;BME280_temperature;BME280_humidity;BME280_pressure;Samples;Min_cycle;Max_cycle;Signal;HPM_P1;HPM_P2
2021/08/11 00:00:29;;;;;;;6.23;4.23;;;;;;;;;;754737;183;918081;-67
2021/08/11 00:02:55;;;;;;;7.90;4.07;;;;;;;;;;756295;184;919048;-66
2021/08/11 00:05:20;;;;;;;5.50;3.70;;;;;;;;;;759033;183;919288;-67
2021/08/11 00:07:46;;;;;;;9.10;4.30;;;;;;;;;;753850;183;919640;-66
2021/08/11 00:10:12;;;;;;;8.60;4.23;;;;;;;;;;752992;184;919190;-66
2021/08/11 00:12:38;;;;;;;9.83;4.30;;;;;;;;;;753554;184;918171;-66
2021/08/11 00:15:04;;;;;;;6.77;4.07;;;;;;;;;;758987;184;920391;-66
2021/08/11 00:17:30;;;;;;;10.40;4.93;;;;;;;;;;754272;184;962502;-66
2021/08/11 00:19:56;;;;;;;12.80;3.97;;;;;;;;;;756048;184;919602;-66
2021/08/11 00:22:22;;;;;;;8.00;3.70;;;;;;;;;;759970;184;919180;-66
2021/08/11 00:24:47;;;;;;;6.00;3.90;;;;;;;;;;754353;184;918888;-66
2021/08/11 00:27:13;;;;;;;13.43;3.80;;;;;;;;;;754705;184;918782;-66
2021/08/11 00:29:39;;;;;;;7.07;3.13;;;;;;;;;;758335;184;920471;-66
2021/08/11 00:32:05;;;;;;;9.80;4.10;;;;;;;;;;753351;184;918959;-66
2021/08/11 00:34:31;;;;;;;7.90;3.43;;;;;;;;;;754558;184;924026;-66
2021/08/11 00:36:57;;;;;;;5.97;3.40;;;;;;;;;;755600;184;918603;-66
2021/08/11 00:39:23;;;;;;;6.60;4.00;;;;;;;;;;759871;184;918870;-66
2021/08/11 00:41:49;;;;;;;6.30;4.30;;;;;;;;;;754509;182;919644;-66
2021/08/11 00:44:14;;;;;;;10.02;5.07;;;;;;;;;;755038;183;917816;-66
2021/08/11 00:46:40;;;;;;;7.47;4.10;;;;;;;;;;761084;183;918810;-66
2021/08/11 00:49:06;;;;;;;15.57;4.40;;;;;;;;;;756797;183;919342;-66
2021/08/11 00:51:32;;;;;;;13.50;5.50;;;;;;;;;;754271;184;918690;-66
2021/08/11 00:53:58;;;;;;;6.73;3.97;;;;;;;;;;759933;183;915232;-66
2021/08/11 00:56:24;;;;;;;10.80;4.20;;;;;;;;;;756589;182;914589;-67
2021/08/11 00:58:50;;;;;;;7.37;4.60;;;;;;;;;;753879;181;916492;-66
2021/08/11 01:01:15;;;;;;;7.30;3.57;;;;;;;;;;756436;181;914996;-66
2021/08/11 01:03:41;;;;;;;4.73;3.73;;;;;;;;;;754178;183;914520;-66
2021/08/11 01:06:07;;;;;;;11.33;4.13;;;;;;;;;;754547;183;919123;-65
2021/08/11 01:08:33;;;;;;;13.02;4.57;;;;;;;;;;753878;183;923076;-66
2021/08/11 01:10:59;;;;;;;7.30;4.03;;;;;;;;;;760253;183;918402;-66
2021/08/11 01:13:25;;;;;;;7.30;4.50;;;;;;;;;;754447;184;919074;-65
2021/08/11 01:15:50;;;;;;;11.33;4.70;;;;;;;;;;754846;183;919335;-67
2021/08/11 01:18:16;;;;;;;7.40;5.10;;;;;;;;;;759756;184;920062;-66
2021/08/11 01:20:57;;;;;;;7.40;4.30;;;;;;;;;;756486;183;920365;-66
2021/08/11 01:23:23;;;;;;;9.23;4.40;;;;;;;;;;748647;184;919092;-66
2021/08/11 01:25:49;;;;;;;9.32;3.65;;;;;;;;;;753468;184;918806;-66
2021/08/11 01:28:20;;;;;;;10.07;4.00;;;;;;;;;;760015;181;919254;-67
2021/08/11 01:30:47;;;;;;;9.63;3.70;;;;;;;;;;758817;184;918776;-66
2021/08/11 01:33:15;;;;;;;6.90;3.70;;;;;;;;;;753006;185;919167;-67
2021/08/11 01:35:42;;;;;;;7.53;4.05;;;;;;;;;;753808;180;918254;-66
2021/08/11 01:38:07;;;;;;;10.13;4.10;;;;;;;;;;759058;184;919412;-66
2021/08/11 01:40:33;;;;;;;5.53;4.20;;;;;;;;;;754363;181;918411;-67
2021/08/11 01:42:58;;;;;;;7.18;3.97;;;;;;;;;;754475;184;919007;-66
2021/08/11 01:45:26;;;;;;;8.57;4.53;;;;;;;;;;758208;181;918041;-66
2021/08/11 01:47:55;;;;;;;9.73;4.77;;;;;;;;;;749373;184;920590;-67
2021/08/11 01:50:21;;;;;;;5.10;2.63;;;;;;;;;;752390;184;919794;-67
2021/08/11 01:52:47;;;;;;;7.43;3.70;;;;;;;;;;753254;184;918851;-66
2021/08/11 01:55:12;;;;;;;17.03;3.90;;;;;;;;;;760571;184;918922;-67
2021/08/11 01:57:38;;;;;;;5.70;2.97;;;;;;;;;;757258;183;919830;-67
2021/08/11 02:00:04;;;;;;;16.87;4.10;;;;;;;;;;755463;183;919115;-67
2021/08/11 02:02:30;;;;;;;12.03;4.10;;;;;;;;;;760004;183;919035;-66
2021/08/11 02:04:56;;;;;;;19.73;3.83;;;;;;;;;;755914;183;919760;-67
2021/08/11 02:07:22;;;;;;;11.43;3.60;;;;;;;;;;756964;183;918740;-66
2021/08/11 02:09:48;;;;;;;6.23;3.57;;;;;;;;;;753894;184;920182;-66
2021/08/11 02:12:14;;;;;;;9.13;3.90;;;;;;;;;;755099;184;918869;-66
2021/08/11 02:14:40;;;;;;;6.63;2.93;;;;;;;;;;753852;183;1000610;-66
2021/08/11 02:17:05;;;;;;;6.77;4.03;;;;;;;;;;754845;183;919321;-66
2021/08/11 02:19:31;;;;;;;5.53;3.03;;;;;;;;;;759436;183;918786;-67
2021/08/11 02:21:57;;;;;;;7.55;4.05;;;;;;;;;;754101;183;919953;-68
2021/08/11 02:24:23;;;;;;;8.90;4.50;;;;;;;;;;754272;183;918906;-66
2021/08/11 02:26:49;;;;;;;13.73;4.17;;;;;;;;;;759568;183;919139;-66
2021/08/11 02:29:17;;;;;;;9.27;4.60;;;;;;;;;;758329;181;920074;-66
2021/08/11 02:31:43;;;;;;;6.18;4.28;;;;;;;;;;754985;184;918736;-66
2021/08/11 02:34:08;;;;;;;4.87;3.40;;;;;;;;;;753203;184;1023022;-66
2021/08/11 02:36:34;;;;;;;24.17;4.80;;;;;;;;;;754136;184;921448;-65
2021/08/11 02:39:00;;;;;;;7.97;4.23;;;;;;;;;;752290;184;919766;-67
2021/08/11 02:41:28;;;;;;;18.90;4.87;;;;;;;;;;752642;184;918413;-66
2021/08/11 02:43:55;;;;;;;14.93;5.07;;;;;;;;;;758191;181;926096;-66
2021/08/11 02:46:21;;;;;;;5.93;4.00;;;;;;;;;;755733;184;918373;-66
2021/08/11 02:48:49;;;;;;;19.33;5.55;;;;;;;;;;754053;184;919415;-66
2021/08/11 02:51:15;;;;;;;8.60;3.90;;;;;;;;;;754773;181;920849;-65
2021/08/11 02:53:41;;;;;;;7.07;4.97;;;;;;;;;;752631;184;920374;-67
2021/08/11 02:56:07;;;;;;;5.57;3.90;;;;;;;;;;753839;184;916741;-66
2021/08/11 02:58:33;;;;;;;8.47;3.70;;;;;;;;;;755341;184;916440;-66
2021/08/11 03:00:58;;;;;;;5.17;3.57;;;;;;;;;;759864;184;915527;-66
2021/08/11 03:03:24;;;;;;;11.20;3.90;;;;;;;;;;756027;184;920882;-66
2021/08/11 03:05:50;;;;;;;4.80;3.70;;;;;;;;;;754421;184;919259;-66
2021/08/11 03:08:16;;;;;;;10.20;4.37;;;;;;;;;;763252;183;905929;-66
2021/08/11 03:10:42;;;;;;;9.27;4.37;;;;;;;;;;757824;183;924541;-66
2021/08/11 03:13:08;;;;;;;49.88;6.97;;;;;;;;;;755259;183;938518;-66
2021/08/11 03:15:33;;;;;;;41.20;7.03;;;;;;;;;;760699;183;920893;-66
2021/08/11 03:17:59;;;;;;;15.23;6.93;;;;;;;;;;754183;184;918582;-65
2021/08/11 03:20:25;;;;;;;58.80;6.50;;;;;;;;;;755257;183;925061;-66
2021/08/11 03:22:51;;;;;;;32.50;8.47;;;;;;;;;;752730;181;918347;-65
2021/08/11 03:25:17;;;;;;;17.83;6.60;;;;;;;;;;759885;182;919117;-66
2021/08/11 03:27:43;;;;;;;28.07;6.93;;;;;;;;;;755794;182;921333;-66
2021/08/11 03:30:09;;;;;;;14.23;7.83;;;;;;;;;;754128;183;918001;-66
2021/08/11 03:32:35;;;;;;;23.57;7.20;;;;;;;;;;759183;183;1019899;-66
2021/08/11 03:35:01;;;;;;;18.53;7.40;;;;;;;;;;756418;182;917360;-65
2021/08/11 03:37:27;;;;;;;14.90;7.97;;;;;;;;;;754181;184;918911;-66
2021/08/11 03:39:55;;;;;;;21.30;7.60;;;;;;;;;;762834;181;915947;-65
2021/08/11 03:42:18;;;;;;;10.50;6.37;;;;;;;;;;753709;183;914783;-65
2021/08/11 03:44:44;;;;;;;18.20;6.97;;;;;;;;;;752826;184;917527;-66
2021/08/11 03:47:10;;;;;;;13.23;6.73;;;;;;;;;;752630;184;919951;-65
2021/08/11 03:49:36;;;;;;;12.63;6.30;;;;;;;;;;749483;183;919631;-65
2021/08/11 03:52:02;;;;;;;13.33;6.40;;;;;;;;;;754312;182;915079;-65
2021/08/11 03:54:27;;;;;;;12.27;6.07;;;;;;;;;;753711;184;922328;-65
2021/08/11 03:56:53;;;;;;;7.93;5.45;;;;;;;;;;759538;184;919232;-65
2021/08/11 03:59:19;;;;;;;11.83;5.70;;;;;;;;;;755719;182;918631;-65
2021/08/11 04:01:45;;;;;;;12.23;6.37;;;;;;;;;;753605;184;919597;-65
2021/08/11 04:04:11;;;;;;;61.77;10.33;;;;;;;;;;757893;184;921700;-65
2021/08/11 04:06:37;;;;;;;9.63;5.70;;;;;;;;;;754107;183;922138;-65
2021/08/11 04:09:02;;;;;;;9.20;6.10;;;;;;;;;;754000;180;920860;-65
2021/08/11 04:11:29;;;;;;;10.27;6.10;;;;;;;;;;759184;184;920101;-65
2021/08/11 04:13:55;;;;;;;11.50;5.90;;;;;;;;;;761461;183;920293;-65
2021/08/11 04:16:21;;;;;;;17.93;6.57;;;;;;;;;;752426;184;918698;-65
2021/08/11 04:18:47;;;;;;;11.48;6.65;;;;;;;;;;754373;181;926901;-65
2021/08/11 04:21:12;;;;;;;17.13;8.10;;;;;;;;;;763815;184;914111;-65
2021/08/11 04:23:38;;;;;;;14.20;6.70;;;;;;;;;;756451;183;914462;-66
2021/08/11 04:26:04;;;;;;;10.18;7.07;;;;;;;;;;759144;183;914386;-65
2021/08/11 04:28:30;;;;;;;14.70;6.90;;;;;;;;;;759560;183;1116664;-65
2021/08/11 04:30:56;;;;;;;12.63;7.47;;;;;;;;;;754584;184;919699;-65
2021/08/11 04:33:22;;;;;;;15.70;8.60;;;;;;;;;;755309;183;912132;-65
2021/08/11 04:35:47;;;;;;;10.93;7.03;;;;;;;;;;759671;183;911879;-66
2021/08/11 04:38:13;;;;;;;15.77;9.63;;;;;;;;;;754712;183;911782;-65
2021/08/11 04:40:39;;;;;;;14.87;8.73;;;;;;;;;;754617;181;911126;-65
2021/08/11 04:43:06;;;;;;;48.73;9.00;;;;;;;;;;754468;181;916338;-65
2021/08/11 04:45:31;;;;;;;32.83;10.97;;;;;;;;;;761739;184;915082;-65
2021/08/11 04:47:57;;;;;;;35.43;11.40;;;;;;;;;;754887;182;915768;-65
2021/08/11 04:50:23;;;;;;;23.52;12.02;;;;;;;;;;753307;182;915752;-65
2021/08/11 04:52:49;;;;;;;36.20;12.17;;;;;;;;;;760135;183;933820;-65
2021/08/11 04:55:15;;;;;;;39.43;12.63;;;;;;;;;;755670;184;919015;-65
2021/08/11 04:57:41;;;;;;;23.40;12.83;;;;;;;;;;753829;184;922390;-65
2021/08/11 05:00:07;;;;;;;23.37;13.20;;;;;;;;;;758560;184;914333;-65
2021/08/11 05:02:33;;;;;;;24.70;12.93;;;;;;;;;;753379;184;919127;-65
2021/08/11 05:04:59;;;;;;;26.70;14.20;;;;;;;;;;752496;184;920237;-65
2021/08/11 05:07:25;;;;;;;29.97;17.03;;;;;;;;;;754126;184;918705;-65
2021/08/11 05:09:50;;;;;;;27.83;16.10;;;;;;;;;;760940;182;917676;-65
2021/08/11 05:12:16;;;;;;;25.75;15.82;;;;;;;;;;753571;182;997808;-64
2021/08/11 05:14:42;;;;;;;33.73;16.63;;;;;;;;;;754036;181;918707;-65
2021/08/11 05:17:08;;;;;;;35.83;14.30;;;;;;;;;;758681;184;917770;-65
2021/08/11 05:19:34;;;;;;;28.67;14.60;;;;;;;;;;754749;184;918578;-64
2021/08/11 05:22:00;;;;;;;29.97;15.63;;;;;;;;;;753986;184;926695;-65
2021/08/11 05:24:25;;;;;;;22.00;14.10;;;;;;;;;;758118;184;918888;-64
2021/08/11 05:26:51;;;;;;;24.27;14.90;;;;;;;;;;755164;184;918892;-65
2021/08/11 05:29:18;;;;;;;24.97;17.07;;;;;;;;;;754445;184;917858;-64
2021/08/11 05:31:44;;;;;;;28.92;18.50;;;;;;;;;;756064;182;919092;-65
2021/08/11 05:34:10;;;;;;;33.17;22.83;;;;;;;;;;762865;183;919558;-67
2021/08/11 05:36:36;;;;;;;32.93;20.00;;;;;;;;;;755089;183;917703;-65
2021/08/11 05:39:01;;;;;;;34.50;21.40;;;;;;;;;;754394;183;918755;-65
2021/08/11 05:41:27;;;;;;;31.07;20.33;;;;;;;;;;761252;183;918156;-65
2021/08/11 05:43:53;;;;;;;31.87;19.30;;;;;;;;;;755266;183;922810;-65
2021/08/11 05:46:19;;;;;;;31.90;20.20;;;;;;;;;;754301;185;918945;-65
2021/08/11 05:48:45;;;;;;;28.33;19.33;;;;;;;;;;748099;185;909729;-65
2021/08/11 05:51:13;;;;;;;28.23;20.17;;;;;;;;;;754862;183;918782;-65
2021/08/11 05:53:37;;;;;;;22.33;16.90;;;;;;;;;;754972;183;919445;-66
2021/08/11 05:56:02;;;;;;;23.33;17.83;;;;;;;;;;759075;183;918732;-65
2021/08/11 05:58:28;;;;;;;25.10;17.90;;;;;;;;;;753305;183;920076;-65
2021/08/11 06:00:54;;;;;;;28.10;17.27;;;;;;;;;;753165;182;916526;-65
2021/08/11 06:03:20;;;;;;;27.73;17.30;;;;;;;;;;754768;184;918524;-65
2021/08/11 06:05:46;;;;;;;26.13;17.20;;;;;;;;;;758811;184;919260;-64
2021/08/11 06:08:12;;;;;;;21.48;15.50;;;;;;;;;;754239;184;918733;-65
2021/08/11 06:10:39;;;;;;;22.30;14.37;;;;;;;;;;754410;181;913726;-65
2021/08/11 06:13:03;;;;;;;17.43;11.80;;;;;;;;;;759338;182;914114;-64
2021/08/11 06:15:29;;;;;;;20.07;12.07;;;;;;;;;;755929;184;916197;-64
2021/08/11 06:17:55;;;;;;;12.60;10.57;;;;;;;;;;754307;181;915978;-65
2021/08/11 06:20:21;;;;;;;15.40;11.17;;;;;;;;;;757878;184;919309;-65
2021/08/11 06:22:47;;;;;;;13.67;10.60;;;;;;;;;;752497;183;919342;-65
2021/08/11 06:25:12;;;;;;;15.33;10.23;;;;;;;;;;753157;184;919950;-65
2021/08/11 06:27:38;;;;;;;12.90;10.17;;;;;;;;;;753375;184;918435;-64
2021/08/11 06:30:05;;;;;;;12.73;8.50;;;;;;;;;;752211;184;918492;-65
2021/08/11 06:32:31;;;;;;;12.00;9.13;;;;;;;;;;752523;184;919309;-65
2021/08/11 06:34:56;;;;;;;13.53;10.27;;;;;;;;;;753261;184;919380;-64
2021/08/11 06:37:22;;;;;;;18.43;9.90;;;;;;;;;;759620;184;918384;-65
2021/08/11 06:39:48;;;;;;;12.87;8.77;;;;;;;;;;754526;184;919330;-65
2021/08/11 06:42:14;;;;;;;12.13;9.33;;;;;;;;;;754889;180;917693;-65
2021/08/11 06:44:40;;;;;;;10.83;8.37;;;;;;;;;;761981;184;919071;-66
2021/08/11 06:47:06;;;;;;;13.90;7.80;;;;;;;;;;756568;183;922127;-65
2021/08/11 06:49:31;;;;;;;13.67;7.40;;;;;;;;;;755372;183;920256;-64
2021/08/11 06:51:57;;;;;;;10.93;6.60;;;;;;;;;;753940;183;919069;-65
2021/08/11 06:54:23;;;;;;;10.20;7.00;;;;;;;;;;753293;183;919005;-65
2021/08/11 06:56:49;;;;;;;12.00;7.73;;;;;;;;;;755698;181;919393;-65
2021/08/11 06:59:15;;;;;;;8.83;7.17;;;;;;;;;;756886;182;918104;-63
2021/08/11 07:01:41;;;;;;;11.60;6.97;;;;;;;;;;759507;183;918367;-63
2021/08/11 07:04:06;;;;;;;9.80;8.80;;;;;;;;;;756255;182;918622;-65
2021/08/11 07:06:32;;;;;;;8.88;6.22;;;;;;;;;;756292;184;918019;-64
2021/08/11 07:08:58;;;;;;;9.60;7.40;;;;;;;;;;759962;184;918596;-62
2021/08/11 07:11:24;;;;;;;9.30;6.90;;;;;;;;;;758618;181;918231;-64
2021/08/11 07:13:50;;;;;;;9.20;7.33;;;;;;;;;;755868;183;919074;-63
2021/08/11 07:16:16;;;;;;;13.80;6.60;;;;;;;;;;760190;184;919305;-64
2021/08/11 07:18:42;;;;;;;10.97;7.40;;;;;;;;;;755213;181;918934;-64
2021/08/11 07:21:07;;;;;;;11.33;7.57;;;;;;;;;;754221;184;918819;-63
2021/08/11 07:23:33;;;;;;;14.00;7.93;;;;;;;;;;754245;184;918800;-63
2021/08/11 07:25:59;;;;;;;7.47;5.70;;;;;;;;;;759442;184;919013;-64
2021/08/11 07:28:25;;;;;;;9.60;6.97;;;;;;;;;;754562;184;918506;-65
2021/08/11 07:30:52;;;;;;;10.07;5.97;;;;;;;;;;755094;184;918774;-64
2021/08/11 07:33:17;;;;;;;7.20;6.13;;;;;;;;;;759213;184;919360;-64
2021/08/11 07:35:43;;;;;;;8.73;6.70;;;;;;;;;;758649;184;620420;-64
2021/08/11 07:38:09;;;;;;;20.10;9.30;;;;;;;;;;757043;184;917948;-65
2021/08/11 07:40:35;;;;;;;7.97;5.70;;;;;;;;;;758092;183;918740;-66
2021/08/11 07:43:01;;;;;;;8.93;6.67;;;;;;;;;;756642;182;917313;-64
2021/08/11 07:45:29;;;;;;;10.60;6.27;;;;;;;;;;753477;184;918390;-66
2021/08/11 07:47:54;;;;;;;10.70;7.07;;;;;;;;;;753419;184;918644;-64
2021/08/11 07:50:20;;;;;;;8.37;6.20;;;;;;;;;;760530;184;918754;-63
2021/08/11 07:52:46;;;;;;;8.53;6.70;;;;;;;;;;757952;181;918064;-65
2021/08/11 07:55:11;;;;;;;13.10;7.90;;;;;;;;;;760815;183;918284;-65
2021/08/11 07:57:38;;;;;;;10.73;7.73;;;;;;;;;;761866;184;919263;-64
2021/08/11 08:00:04;;;;;;;11.53;7.83;;;;;;;;;;756936;183;918912;-63
2021/08/11 08:02:29;;;;;;;11.73;7.90;;;;;;;;;;755828;184;919736;-63
2021/08/11 08:04:55;;;;;;;10.67;8.13;;;;;;;;;;762554;183;918817;-65
2021/08/11 08:07:21;;;;;;;9.87;7.00;;;;;;;;;;754674;182;919303;-63
2021/08/11 08:09:47;;;;;;;10.70;6.43;;;;;;;;;;754344;184;919500;-63
2021/08/11 08:12:13;;;;;;;9.40;6.93;;;;;;;;;;753725;182;919952;-63
2021/08/11 08:14:39;;;;;;;12.70;7.57;;;;;;;;;;759511;183;919646;-63
2021/08/11 08:17:04;;;;;;;9.20;7.50;;;;;;;;;;755155;183;919508;-63
2021/08/11 08:19:30;;;;;;;13.97;7.83;;;;;;;;;;754518;184;918411;-64
2021/08/11 08:21:56;;;;;;;10.87;7.83;;;;;;;;;;760728;183;919698;-64
2021/08/11 08:24:22;;;;;;;12.13;8.10;;;;;;;;;;754904;183;919660;-64
2021/08/11 08:26:48;;;;;;;12.77;8.67;;;;;;;;;;754706;183;923534;-63
2021/08/11 08:29:14;;;;;;;10.63;8.00;;;;;;;;;;757728;184;920258;-64
2021/08/11 08:31:40;;;;;;;11.70;8.80;;;;;;;;;;760031;184;631269;-65
2021/08/11 08:34:05;;;;;;;10.20;6.60;;;;;;;;;;757326;184;633273;-65
2021/08/11 08:36:31;;;;;;;14.47;8.23;;;;;;;;;;758974;184;632745;-64
2021/08/11 08:38:57;;;;;;;14.90;8.73;;;;;;;;;;758693;182;629569;-65
2021/08/11 08:41:23;;;;;;;9.20;7.00;;;;;;;;;;757001;182;627365;-64
2021/08/11 08:43:49;;;;;;;14.53;7.57;;;;;;;;;;759675;182;645360;-64
2021/08/11 08:46:15;;;;;;;9.50;6.90;;;;;;;;;;762598;182;670249;-64
2021/08/11 08:48:41;;;;;;;10.60;6.40;;;;;;;;;;759251;184;628659;-64
2021/08/11 08:51:08;;;;;;;9.87;6.53;;;;;;;;;;762150;184;629590;-65
2021/08/11 08:53:34;;;;;;;11.23;6.40;;;;;;;;;;762170;181;621367;-64
2021/08/11 08:56:00;;;;;;;9.40;7.00;;;;;;;;;;759348;184;635583;-67
2021/08/11 08:58:27;;;;;;;11.43;6.20;;;;;;;;;;762059;184;635979;-65
2021/08/11 09:00:53;;;;;;;9.43;6.90;;;;;;;;;;759357;184;632059;-65
2021/08/11 09:03:18;;;;;;;6.73;5.43;;;;;;;;;;758930;184;629000;-64
2021/08/11 09:05:46;;;;;;;9.80;6.87;;;;;;;;;;760324;183;628983;-65
2021/08/11 09:08:10;;;;;;;8.87;5.57;;;;;;;;;;759251;183;637829;-64
2021/08/11 09:10:36;;;;;;;6.37;5.07;;;;;;;;;;763259;183;618651;-65
2021/08/11 09:13:08;;;;;;;15.00;6.90;;;;;;;;;;760644;183;641242;-65
2021/08/11 09:15:34;;;;;;;6.40;5.43;;;;;;;;;;759472;184;628963;-67
2021/08/11 09:18:00;;;;;;;7.53;4.40;;;;;;;;;;758843;181;624340;-65
2021/08/11 09:20:25;;;;;;;10.23;5.40;;;;;;;;;;755915;184;618399;-64
2021/08/11 09:22:51;;;;;;;8.23;4.93;;;;;;;;;;757639;184;618572;-66
2021/08/11 09:25:17;;;;;;;9.20;5.07;;;;;;;;;;757321;183;630125;-66
2021/08/11 09:27:43;;;;;;;13.20;6.50;;;;;;;;;;762581;184;642478;-65
2021/08/11 09:30:12;;;;;;;8.03;5.20;;;;;;;;;;759390;182;616660;-65
2021/08/11 09:32:47;;;;;;;8.23;5.70;;;;;;;;;;762049;181;629329;-65
2021/08/11 09:35:13;;;;;;;12.70;6.10;;;;;;;;;;758516;183;628308;-65
2021/08/11 09:37:38;;;;;;;6.70;5.67;;;;;;;;;;762254;183;621428;-66
2021/08/11 09:40:11;;;;;;;7.13;4.30;;;;;;;;;;760179;183;626754;-65
2021/08/11 09:42:37;;;;;;;10.00;5.10;;;;;;;;;;759653;184;645794;-66
2021/08/11 09:45:03;;;;;;;8.40;4.60;;;;;;;;;;757563;184;627175;-65
2021/08/11 09:47:29;;;;;;;7.20;4.60;;;;;;;;;;757354;184;620228;-65
2021/08/11 09:49:59;;;;;;;6.80;4.20;;;;;;;;;;757698;183;629095;-66
2021/08/11 09:52:24;;;;;;;6.90;4.20;;;;;;;;;;757317;183;625554;-65
2021/08/11 09:55:00;;;;;;;9.53;4.93;;;;;;;;;;761886;184;632106;-65
2021/08/11 09:57:27;;;;;;;6.43;4.43;;;;;;;;;;761258;184;619894;-64
2021/08/11 09:59:54;;;;;;;10.00;4.17;;;;;;;;;;758448;182;628650;-66
2021/08/11 10:02:21;;;;;;;7.23;4.10;;;;;;;;;;757647;181;620978;-67
2021/08/11 10:04:46;;;;;;;6.00;4.37;;;;;;;;;;763611;184;620806;-65
2021/08/11 10:07:12;;;;;;;7.60;4.70;;;;;;;;;;760545;184;619194;-66
2021/08/11 10:09:38;;;;;;;6.90;4.07;;;;;;;;;;758828;184;637251;-64
2021/08/11 10:12:04;;;;;;;8.33;4.07;;;;;;;;;;758614;184;633926;-65
2021/08/11 10:14:30;;;;;;;8.40;4.93;;;;;;;;;;756277;184;637581;-66
2021/08/11 10:16:57;;;;;;;5.13;4.13;;;;;;;;;;758920;183;632671;-65
2021/08/11 10:19:23;;;;;;;10.00;5.57;;;;;;;;;;759514;184;633485;-64
2021/08/11 10:21:50;;;;;;;6.53;4.47;;;;;;;;;;764306;183;618545;-64
2021/08/11 10:24:17;;;;;;;7.57;4.53;;;;;;;;;;759320;183;637192;-65
2021/08/11 10:26:43;;;;;;;8.30;4.57;;;;;;;;;;760749;181;628667;-66
2021/08/11 10:29:09;;;;;;;6.60;4.03;;;;;;;;;;763107;183;642734;-66
2021/08/11 10:31:34;;;;;;;9.30;5.40;;;;;;;;;;759567;180;640614;-66
2021/08/11 10:34:01;;;;;;;6.90;4.33;;;;;;;;;;759907;182;628197;-67
2021/08/11 10:36:28;;;;;;;8.10;4.50;;;;;;;;;;757963;184;628065;-65
2021/08/11 10:38:54;;;;;;;8.60;3.93;;;;;;;;;;763790;183;618590;-64
2021/08/11 10:41:20;;;;;;;7.80;4.40;;;;;;;;;;757980;183;628293;-66
2021/08/11 10:43:45;;;;;;;5.63;4.60;;;;;;;;;;759088;182;619723;-66
2021/08/11 10:46:11;;;;;;;7.47;4.40;;;;;;;;;;761908;184;621282;-64
2021/08/11 10:48:37;;;;;;;8.13;4.50;;;;;;;;;;759372;183;619973;-66
2021/08/11 10:51:03;;;;;;;5.57;3.97;;;;;;;;;;758760;184;618208;-66
2021/08/11 10:53:29;;;;;;;11.03;4.47;;;;;;;;;;761659;181;620056;-64
2021/08/11 10:55:56;;;;;;;5.10;3.80;;;;;;;;;;759579;184;625279;-65
2021/08/11 10:58:31;;;;;;;7.70;4.77;;;;;;;;;;759263;181;632171;-64
2021/08/11 11:00:57;;;;;;;7.90;4.80;;;;;;;;;;760354;184;635916;-66
2021/08/11 11:03:29;;;;;;;7.23;4.30;;;;;;;;;;760995;184;624334;-64
2021/08/11 11:05:54;;;;;;;6.97;4.37;;;;;;;;;;761212;183;637980;-65
2021/08/11 11:08:29;;;;;;;6.33;4.10;;;;;;;;;;757258;184;639174;-67
2021/08/11 11:10:55;;;;;;;6.20;4.40;;;;;;;;;;758032;184;619244;-65
2021/08/11 11:13:38;;;;;;;10.43;6.37;;;;;;;;;;762162;184;617719;-65
2021/08/11 11:16:07;;;;;;;8.60;5.40;;;;;;;;;;757699;184;622920;-66
2021/08/11 11:18:30;;;;;;;8.30;5.40;;;;;;;;;;765630;181;621845;-65
2021/08/11 11:21:11;;;;;;;7.00;4.87;;;;;;;;;;757883;184;639172;-67
2021/08/11 11:23:37;;;;;;;6.47;4.57;;;;;;;;;;757626;183;622890;-66
2021/08/11 11:26:05;;;;;;;6.33;4.10;;;;;;;;;;757444;183;631166;-64
2021/08/11 11:28:36;;;;;;;6.90;4.63;;;;;;;;;;763390;184;618009;-67
2021/08/11 11:31:02;;;;;;;7.97;4.63;;;;;;;;;;760351;184;631597;-65
2021/08/11 11:33:31;;;;;;;6.70;3.83;;;;;;;;;;754649;184;631044;-66
2021/08/11 11:36:12;;;;;;;5.70;4.43;;;;;;;;;;758860;183;641323;-65
2021/08/11 11:38:38;;;;;;;5.17;3.67;;;;;;;;;;760301;183;618409;-65
2021/08/11 11:41:05;;;;;;;6.23;4.20;;;;;;;;;;760607;183;619775;-65
2021/08/11 11:43:31;;;;;;;6.73;5.00;;;;;;;;;;758806;182;635600;-65
2021/08/11 11:45:57;;;;;;;15.70;4.70;;;;;;;;;;753634;183;630273;-65
2021/08/11 11:48:22;;;;;;;5.03;3.60;;;;;;;;;;761519;183;618896;-65
2021/08/11 11:50:49;;;;;;;4.60;3.73;;;;;;;;;;760210;183;637715;-65
2021/08/11 11:53:20;;;;;;;5.73;3.33;;;;;;;;;;759201;184;622638;-66
2021/08/11 11:55:46;;;;;;;6.00;3.90;;;;;;;;;;759608;183;628943;-66
2021/08/11 11:58:14;;;;;;;4.97;4.03;;;;;;;;;;762684;183;616553;-64
2021/08/11 12:00:40;;;;;;;7.47;4.20;;;;;;;;;;758980;182;623654;-64
2021/08/11 12:03:06;;;;;;;7.80;4.13;;;;;;;;;;759285;184;625826;-66
2021/08/11 12:05:37;;;;;;;7.67;4.00;;;;;;;;;;762208;181;615621;-66
2021/08/11 12:08:09;;;;;;;6.17;3.33;;;;;;;;;;760620;184;628093;-68
2021/08/11 12:10:38;;;;;;;9.13;3.40;;;;;;;;;;757887;184;628944;-67
2021/08/11 12:13:01;;;;;;;5.27;3.93;;;;;;;;;;758926;183;632893;-67
2021/08/11 12:15:27;;;;;;;6.60;4.10;;;;;;;;;;763270;183;632419;-68
2021/08/11 12:17:56;;;;;;;6.07;4.00;;;;;;;;;;758700;184;786733;-69
2021/08/11 12:20:24;;;;;;;7.00;4.40;;;;;;;;;;759056;184;637354;-64
2021/08/11 12:22:50;;;;;;;4.80;3.30;;;;;;;;;;759121;184;624117;-65
2021/08/11 12:25:21;;;;;;;7.13;4.17;;;;;;;;;;763061;184;624371;-66
2021/08/11 12:27:52;;;;;;;5.83;4.07;;;;;;;;;;760571;184;630857;-66
2021/08/11 12:30:18;;;;;;;8.47;3.60;;;;;;;;;;757568;184;918993;-66
2021/08/11 12:32:44;;;;;;;6.87;4.03;;;;;;;;;;754632;184;919083;-65
2021/08/11 12:35:10;;;;;;;8.40;3.60;;;;;;;;;;761202;184;637989;-65
2021/08/11 12:37:42;;;;;;;7.10;3.90;;;;;;;;;;757905;183;619598;-65
2021/08/11 12:40:08;;;;;;;9.57;3.90;;;;;;;;;;759387;182;631996;-66
2021/08/11 12:42:34;;;;;;;6.77;4.40;;;;;;;;;;764148;183;676397;-65
2021/08/11 12:45:04;;;;;;;5.37;4.13;;;;;;;;;;758514;183;628340;-67
2021/08/11 12:47:26;;;;;;;7.57;3.90;;;;;;;;;;758482;183;637415;-66
2021/08/11 12:49:52;;;;;;;6.50;3.63;;;;;;;;;;757970;183;695755;-65
2021/08/11 12:52:18;;;;;;;11.87;4.80;;;;;;;;;;762866;184;633320;-66
2021/08/11 12:54:49;;;;;;;8.23;3.70;;;;;;;;;;760207;181;613655;-68
2021/08/11 12:57:15;;;;;;;7.17;4.00;;;;;;;;;;760022;181;618852;-66
2021/08/11 12:59:44;;;;;;;5.50;3.73;;;;;;;;;;761969;183;619064;-67
2021/08/11 13:02:16;;;;;;;6.20;4.33;;;;;;;;;;757142;183;629112;-66
2021/08/11 13:04:42;;;;;;;7.63;4.63;;;;;;;;;;757978;183;636085;-66
2021/08/11 13:07:08;;;;;;;6.80;4.23;;;;;;;;;;757287;182;623249;-65
2021/08/11 13:09:33;;;;;;;6.60;4.07;;;;;;;;;;764256;183;618264;-67
2021/08/11 13:12:02;;;;;;;7.53;4.07;;;;;;;;;;759859;183;623649;-66
2021/08/11 13:14:34;;;;;;;5.30;3.60;;;;;;;;;;759356;184;670435;-65
2021/08/11 13:16:59;;;;;;;7.00;4.60;;;;;;;;;;758074;184;631762;-67
2021/08/11 13:19:25;;;;;;;4.70;3.90;;;;;;;;;;762280;184;639523;-66
2021/08/11 13:21:51;;;;;;;7.03;4.13;;;;;;;;;;760178;183;632346;-65
2021/08/11 13:24:17;;;;;;;7.73;4.03;;;;;;;;;;759096;184;626612;-66
2021/08/11 13:26:43;;;;;;;7.50;4.10;;;;;;;;;;761566;184;630832;-65
2021/08/11 13:29:09;;;;;;;8.70;4.63;;;;;;;;;;758048;184;659818;-66
2021/08/11 13:31:34;;;;;;;7.50;4.63;;;;;;;;;;757504;182;626302;-66
2021/08/11 13:34:00;;;;;;;6.67;4.30;;;;;;;;;;757388;184;629946;-68
2021/08/11 13:36:26;;;;;;;5.20;3.83;;;;;;;;;;762736;184;629756;-65
2021/08/11 13:38:52;;;;;;;7.77;3.73;;;;;;;;;;760304;182;624745;-66
2021/08/11 13:41:18;;;;;;;7.20;4.00;;;;;;;;;;759066;183;842030;-67
2021/08/11 13:43:44;;;;;;;6.53;3.70;;;;;;;;;;762292;184;624930;-66
2021/08/11 13:46:10;;;;;;;5.80;3.60;;;;;;;;;;759175;184;652442;-66
2021/08/11 13:48:35;;;;;;;4.87;3.53;;;;;;;;;;759803;184;619989;-66
2021/08/11 13:51:01;;;;;;;6.47;3.80;;;;;;;;;;763031;182;622422;-65
2021/08/11 13:53:27;;;;;;;6.47;3.43;;;;;;;;;;760270;180;643297;-65
2021/08/11 13:55:53;;;;;;;5.03;3.50;;;;;;;;;;759563;184;635733;-66
2021/08/11 13:58:19;;;;;;;6.93;4.10;;;;;;;;;;759822;184;625519;-66
2021/08/11 14:00:45;;;;;;;7.40;3.87;;;;;;;;;;765121;181;610733;-67
2021/08/11 14:03:10;;;;;;;8.63;4.57;;;;;;;;;;758152;183;679758;-66
2021/08/11 14:05:36;;;;;;;7.37;3.90;;;;;;;;;;758415;183;647783;-66
2021/08/11 14:08:02;;;;;;;6.23;4.77;;;;;;;;;;764358;183;619072;-65
2021/08/11 14:10:28;;;;;;;12.63;3.60;;;;;;;;;;761160;181;627854;-67
2021/08/11 14:12:54;;;;;;;4.93;3.03;;;;;;;;;;760989;184;619871;-66
2021/08/11 14:15:20;;;;;;;5.73;3.77;;;;;;;;;;762851;183;617592;-66
2021/08/11 14:17:45;;;;;;;5.23;4.00;;;;;;;;;;759242;183;615002;-66